sensor_id;sensor_type;location;lat;lon;timestamp;pressure;altitude;pressure_sealevel;temperature;humidity
18918;BME280;9591;52.742;13.650;2023-03-21T00:02:16;101143.13;;;11.18;100.00
18918;BME280;9591;52.742;13.650;2023-03-21T00:05:04;101142.31;;;11.15;100.00
18918;BME280;9591;52.742;13.650;2023-03-21T00:08:01;101142.25;;;11.17;100.00
18918;BME280;9591;52.742;13.650;2023-03-21T00:10:54;101141.19;;;11.24;100.00
18918;BME280;9591;52.742;13.650;2023-03-21T00:13:42;101143.31;;;11.11;100.00
18918;BME280;9591;52.742;13.650;2023-03-21T00:16:29;101142.50;;;11.08;100.00
18918;BME280;9591;52.742;13.650;2023-03-21T00:19:21;101131.88;;;11.09;100.00
18918;BME280;9591;52.742;13.650;2023-03-21T00:22:10;101136.44;;;11.04;100.00
18918;BME280;9591;52.742;13.650;2023-03-21T00:25:00;101136.19;;;11.13;100.00
18918;BME280;9591;52.742;13.650;2023-03-21T00:27:47;101138.88;;;11.12;100.00
18918;BME280;9591;52.742;13.650;2023-03-21T00:31:00;101134.78;;;11.00;100.00
18918;BME280;9591;52.742;13.650;2023-03-21T00:33:52;101138.09;;;11.08;100.00
18918;BME280;9591;52.742;13.650;2023-03-21T00:36:53;101135.44;;;11.08;100.00
18918;BME280;9591;52.742;13.650;2023-03-21T00:39:39;101134.75;;;11.02;100.00
18918;BME280;9591;52.742;13.650;2023-03-21T00:42:30;101129.09;;;11.14;100.00
18918;BME280;9591;52.742;13.650;2023-03-21T00:45:17;101128.59;;;11.00;100.00
18918;BME280;9591;52.742;13.650;2023-03-21T00:48:07;101131.38;;;10.95;100.00
18918;BME280;9591;52.742;13.650;2023-03-21T00:50:55;101127.66;;;11.02;100.00
18918;BME280;9591;52.742;13.650;2023-03-21T00:53:43;101126.22;;;10.91;100.00
18918;BME280;9591;52.742;13.650;2023-03-21T00:56:30;101119.22;;;10.88;100.00
18918;BME280;9591;52.742;13.650;2023-03-21T00:59:18;101123.72;;;10.84;100.00
18918;BME280;9591;52.742;13.650;2023-03-21T01:02:05;101117.63;;;10.81;100.00
18918;BME280;9591;52.742;13.650;2023-03-21T01:04:52;101111.75;;;10.70;100.00
18918;BME280;9591;52.742;13.650;2023-03-21T01:07:39;101113.56;;;10.68;100.00
18918;BME280;9591;52.742;13.650;2023-03-21T01:10:25;101111.84;;;10.67;100.00
18918;BME280;9591;52.742;13.650;2023-03-21T01:13:14;101084.59;;;10.62;100.00
18918;BME280;9591;52.742;13.650;2023-03-21T01:16:03;101108.19;;;10.71;100.00
18918;BME280;9591;52.742;13.650;2023-03-21T01:18:50;101108.22;;;10.69;100.00
18918;BME280;9591;52.742;13.650;2023-03-21T01:21:37;101107.53;;;10.63;100.00
18918;BME280;9591;52.742;13.650;2023-03-21T01:24:24;101105.81;;;10.60;100.00
18918;BME280;9591;52.742;13.650;2023-03-21T01:27:11;101107.53;;;10.63;100.00
18918;BME280;9591;52.742;13.650;2023-03-21T01:29:58;101108.44;;;10.62;100.00
18918;BME280;9591;52.742;13.650;2023-03-21T01:32:46;101113.84;;;10.57;100.00
18918;BME280;9591;52.742;13.650;2023-03-21T01:35:35;101107.50;;;10.64;100.00
18918;BME280;9591;52.742;13.650;2023-03-21T01:38:36;101114.66;;;10.61;100.00
18918;BME280;9591;52.742;13.650;2023-03-21T01:41:26;101113.56;;;10.68;100.00
18918;BME280;9591;52.742;13.650;2023-03-21T01:44:52;101112.97;;;10.57;100.00
18918;BME280;9591;52.742;13.650;2023-03-21T01:47:40;101118.19;;;10.60;100.00
18918;BME280;9591;52.742;13.650;2023-03-21T01:50:50;101110.81;;;10.72;100.00
18918;BME280;9591;52.742;13.650;2023-03-21T01:53:41;101106.78;;;10.58;100.00
18918;BME280;9591;52.742;13.650;2023-03-21T01:56:30;101117.28;;;10.61;100.00
18918;BME280;9591;52.742;13.650;2023-03-21T01:59:26;101118.31;;;10.55;100.00
18918;BME280;9591;52.742;13.650;2023-03-21T02:02:33;101116.69;;;10.49;100.00
18918;BME280;9591;52.742;13.650;2023-03-21T02:05:50;101108.84;;;10.46;100.00
18918;BME280;9591;52.742;13.650;2023-03-21T02:08:38;101113.28;;;10.44;100.00
18918;BME280;9591;52.742;13.650;2023-03-21T02:11:30;101114.09;;;10.48;100.00
18918;BME280;9591;52.742;13.650;2023-03-21T02:14:19;101114.16;;;10.45;100.00
18918;BME280;9591;52.742;13.650;2023-03-21T02:17:30;101106.19;;;10.46;100.00
18918;BME280;9591;52.742;13.650;2023-03-21T02:21:02;101102.91;;;10.38;100.00
18918;BME280;9591;52.742;13.650;2023-03-21T02:27:12;101106.34;;;10.40;100.00
18918;BME280;9591;52.742;13.650;2023-03-21T02:30:40;101104.44;;;10.45;100.00
18918;BME280;9591;52.742;13.650;2023-03-21T02:37:10;101100.31;;;10.35;100.00
18918;BME280;9591;52.742;13.650;2023-03-21T02:40:08;101106.53;;;10.34;100.00
18918;BME280;9591;52.742;13.650;2023-03-21T02:43:02;101097.75;;;10.32;100.00
18918;BME280;9591;52.742;13.650;2023-03-21T02:46:06;101100.44;;;10.31;100.00
18918;BME280;9591;52.742;13.650;2023-03-21T02:49:00;101108.28;;;10.35;100.00
18918;BME280;9591;52.742;13.650;2023-03-21T02:51:48;101108.34;;;10.32;100.00
18918;BME280;9591;52.742;13.650;2023-03-21T02:54:40;101111.81;;;10.34;100.00
18918;BME280;9591;52.742;13.650;2023-03-21T02:57:35;101109.09;;;10.37;100.00
18918;BME280;9591;52.742;13.650;2023-03-21T03:00:30;101113.59;;;10.34;100.00
18918;BME280;9591;52.742;13.650;2023-03-21T03:03:20;101106.50;;;10.36;100.00
18918;BME280;9591;52.742;13.650;2023-03-21T03:06:23;101110.16;;;10.30;100.00
18918;BME280;9591;52.742;13.650;2023-03-21T03:09:21;101112.88;;;10.27;100.00
18918;BME280;9591;52.742;13.650;2023-03-21T03:12:20;101111.09;;;10.28;100.00
18918;BME280;9591;52.742;13.650;2023-03-21T03:15:18;101115.38;;;10.33;100.00
18918;BME280;9591;52.742;13.650;2023-03-21T03:18:12;101114.63;;;10.28;100.00
18918;BME280;9591;52.742;13.650;2023-03-21T03:21:08;101114.66;;;10.27;100.00
18918;BME280;9591;52.742;13.650;2023-03-21T03:23:58;101119.16;;;10.23;100.00
18918;BME280;9591;52.742;13.650;2023-03-21T03:26:50;101110.31;;;10.24;100.00
18918;BME280;9591;52.742;13.650;2023-03-21T03:29:44;101115.59;;;10.24;100.00
18918;BME280;9591;52.742;13.650;2023-03-21T03:32:39;101117.34;;;10.25;100.00
18918;BME280;9591;52.742;13.650;2023-03-21T03:35:29;101116.50;;;10.23;100.00
18918;BME280;9591;52.742;13.650;2023-03-21T03:38:17;101119.22;;;10.20;100.00
18918;BME280;9591;52.742;13.650;2023-03-21T03:41:11;101119.09;;;10.26;100.00
18918;BME280;9591;52.742;13.650;2023-03-21T03:44:08;101119.78;;;10.34;100.00
18918;BME280;9591;52.742;13.650;2023-03-21T03:47:03;101119.00;;;10.29;100.00
18918;BME280;9591;52.742;13.650;2023-03-21T03:49:56;101117.13;;;10.34;100.00
18918;BME280;9591;52.742;13.650;2023-03-21T03:52:53;101121.59;;;10.32;100.00
18918;BME280;9591;52.742;13.650;2023-03-21T03:55:48;101119.84;;;10.31;100.00
18918;BME280;9591;52.742;13.650;2023-03-21T03:58:38;101121.66;;;10.29;100.00
18918;BME280;9591;52.742;13.650;2023-03-21T04:01:33;101115.44;;;10.30;100.00
18918;BME280;9591;52.742;13.650;2023-03-21T04:04:21;101112.06;;;10.25;100.00
18918;BME280;9591;52.742;13.650;2023-03-21T04:07:13;101119.16;;;10.23;100.00
18918;BME280;9591;52.742;13.650;2023-03-21T04:10:01;101116.44;;;10.26;100.00
18918;BME280;9591;52.742;13.650;2023-03-21T04:12:50;101118.09;;;10.30;100.00
18918;BME280;9591;52.742;13.650;2023-03-21T04:16:16;101116.00;;;10.43;100.00
18918;BME280;9591;52.742;13.650;2023-03-21T04:19:04;101111.03;;;10.31;100.00
18918;BME280;9591;52.742;13.650;2023-03-21T04:21:52;101109.22;;;10.33;100.00
18918;BME280;9591;52.742;13.650;2023-03-21T04:24:39;101107.69;;;10.23;100.00
18918;BME280;9591;52.742;13.650;2023-03-21T04:27:27;101110.13;;;10.32;100.00
18918;BME280;9591;52.742;13.650;2023-03-21T04:30:23;101113.38;;;10.41;100.00
18918;BME280;9591;52.742;13.650;2023-03-21T04:33:19;101111.47;;;10.46;100.00
18918;BME280;9591;52.742;13.650;2023-03-21T04:36:10;101111.75;;;10.37;100.00
18918;BME280;9591;52.742;13.650;2023-03-21T04:39:12;101116.94;;;10.40;100.00
18918;BME280;9591;52.742;13.650;2023-03-21T04:42:02;101110.97;;;10.34;100.00
18918;BME280;9591;52.742;13.650;2023-03-21T04:44:49;101116.28;;;10.32;100.00
18918;BME280;9591;52.742;13.650;2023-03-21T04:47:36;101116.41;;;10.28;100.00
18918;BME280;9591;52.742;13.650;2023-03-21T04:50:23;101114.41;;;10.37;100.00
18918;BME280;9591;52.742;13.650;2023-03-21T04:53:10;101113.63;;;10.32;100.00
18918;BME280;9591;52.742;13.650;2023-03-21T04:55:58;101109.78;;;10.44;100.00
18918;BME280;9591;52.742;13.650;2023-03-21T04:58:45;101116.31;;;10.65;100.00
18918;BME280;9591;52.742;13.650;2023-03-21T05:01:32;101123.72;;;10.50;100.00
18918;BME280;9591;52.742;13.650;2023-03-21T05:04:21;101116.94;;;10.40;100.00
18918;BME280;9591;52.742;13.650;2023-03-21T05:07:08;101119.44;;;10.46;100.00
18918;BME280;9591;52.742;13.650;2023-03-21T05:09:55;101122.06;;;10.46;100.00
18918;BME280;9591;52.742;13.650;2023-03-21T05:12:43;101122.75;;;10.55;100.00
18918;BME280;9591;52.742;13.650;2023-03-21T05:15:30;101125.25;;;10.61;100.00
18918;BME280;9591;52.742;13.650;2023-03-21T05:18:17;101126.31;;;10.54;100.00
18918;BME280;9591;52.742;13.650;2023-03-21T05:21:27;101123.78;;;10.49;100.00
18918;BME280;9591;52.742;13.650;2023-03-21T05:24:20;101124.88;;;10.40;100.00
18918;BME280;9591;52.742;13.650;2023-03-21T05:27:09;101126.44;;;10.49;100.00
18918;BME280;9591;52.742;13.650;2023-03-21T05:30:07;101128.19;;;10.48;100.00
18918;BME280;9591;52.742;13.650;2023-03-21T05:32:55;101123.56;;;10.57;100.00
18918;BME280;9591;52.742;13.650;2023-03-21T05:35:42;101120.03;;;10.58;100.00
18918;BME280;9591;52.742;13.650;2023-03-21T05:38:30;101128.00;;;10.56;100.00
18918;BME280;9591;52.742;13.650;2023-03-21T05:41:17;101123.56;;;10.57;100.00
18918;BME280;9591;52.742;13.650;2023-03-21T05:44:06;101111.16;;;10.59;100.00
18918;BME280;9591;52.742;13.650;2023-03-21T05:46:56;101120.94;;;10.57;100.00
18918;BME280;9591;52.742;13.650;2023-03-21T05:49:52;101116.47;;;10.59;100.00
18918;BME280;9591;52.742;13.650;2023-03-21T05:52:40;101122.63;;;10.59;100.00
18918;BME280;9591;52.742;13.650;2023-03-21T05:55:30;101114.56;;;10.64;100.00
18918;BME280;9591;52.742;13.650;2023-03-21T05:58:17;101114.31;;;10.73;100.00
18918;BME280;9591;52.742;13.650;2023-03-21T06:01:07;101114.06;;;10.82;100.00
18918;BME280;9591;52.742;13.650;2023-03-21T06:03:59;101120.63;;;11.01;100.00
18918;BME280;9591;52.742;13.650;2023-03-21T06:06:47;101120.47;;;11.06;100.00
18918;BME280;9591;52.742;13.650;2023-03-21T06:09:35;101117.41;;;11.21;100.00
18918;BME280;9591;52.742;13.650;2023-03-21T06:12:22;101119.44;;;11.41;100.00
18918;BME280;9591;52.742;13.650;2023-03-21T06:15:35;101120.28;;;11.43;100.00
18918;BME280;9591;52.742;13.650;2023-03-21T06:18:28;101119.81;;;11.29;100.00
18918;BME280;9591;52.742;13.650;2023-03-21T06:21:31;101121.19;;;11.42;100.00
18918;BME280;9591;52.742;13.650;2023-03-21T06:24:18;101112.59;;;11.34;100.00
18918;BME280;9591;52.742;13.650;2023-03-21T06:27:05;101117.84;;;11.35;100.00
18918;BME280;9591;52.742;13.650;2023-03-21T06:30:06;101088.97;;;11.26;100.00
18918;BME280;9591;52.742;13.650;2023-03-21T06:33:02;101124.03;;;11.65;100.00
18918;BME280;9591;52.742;13.650;2023-03-21T06:35:50;101127.50;;;11.67;100.00
18918;BME280;9591;52.742;13.650;2023-03-21T06:38:40;101125.66;;;11.69;100.00
18918;BME280;9591;52.742;13.650;2023-03-21T06:41:27;101131.88;;;11.68;100.00
18918;BME280;9591;52.742;13.650;2023-03-21T06:44:19;101135.81;;;11.86;100.00
18918;BME280;9591;52.742;13.650;2023-03-21T06:47:14;101127.59;;;11.64;100.00
18918;BME280;9591;52.742;13.650;2023-03-21T06:50:04;101133.44;;;11.46;100.00
18918;BME280;9591;52.742;13.650;2023-03-21T06:52:57;101137.28;;;11.65;100.00
18918;BME280;9591;52.742;13.650;2023-03-21T06:55:49;101146.75;;;11.74;100.00
18918;BME280;9591;52.742;13.650;2023-03-21T06:58:37;101140.34;;;11.82;100.00
18918;BME280;9591;52.742;13.650;2023-03-21T07:01:31;101142.75;;;11.90;100.00
18918;BME280;9591;52.742;13.650;2023-03-21T07:04:22;101142.84;;;11.87;100.00
18918;BME280;9591;52.742;13.650;2023-03-21T07:07:10;101149.84;;;11.90;100.00
18918;BME280;9591;52.742;13.650;2023-03-21T07:09:56;101142.22;;;12.07;100.00
18918;BME280;9591;52.742;13.650;2023-03-21T07:12:48;101142.50;;;11.98;100.00
18918;BME280;9591;52.742;13.650;2023-03-21T07:15:49;101145.69;;;12.09;100.00
18918;BME280;9591;52.742;13.650;2023-03-21T07:18:36;101145.31;;;11.93;100.00
18918;BME280;9591;52.742;13.650;2023-03-21T07:21:22;101149.16;;;12.11;100.00
18918;BME280;9591;52.742;13.650;2023-03-21T07:24:10;101140.44;;;12.07;100.00
18918;BME280;9591;52.742;13.650;2023-03-21T07:26:57;101146.38;;;12.14;100.00
18918;BME280;9591;52.742;13.650;2023-03-21T07:29:45;101148.75;;;12.23;100.00
18918;BME280;9591;52.742;13.650;2023-03-21T07:32:33;101137.41;;;12.18;100.00
18918;BME280;9591;52.742;13.650;2023-03-21T07:35:20;101152.13;;;12.28;100.00
18918;BME280;9591;52.742;13.650;2023-03-21T07:38:07;101085.47;;;11.83;100.00
18918;BME280;9591;52.742;13.650;2023-03-21T07:40:53;101145.94;;;12.28;100.00
18918;BME280;9591;52.742;13.650;2023-03-21T07:43:40;101153.09;;;12.26;100.00
18918;BME280;9591;52.742;13.650;2023-03-21T07:46:29;101155.41;;;12.36;100.00
18918;BME280;9591;52.742;13.650;2023-03-21T07:49:15;101150.63;;;11.93;100.00
18918;BME280;9591;52.742;13.650;2023-03-21T07:52:02;101150.72;;;12.17;100.00
18918;BME280;9591;52.742;13.650;2023-03-21T07:54:50;101153.03;;;12.01;100.00
18918;BME280;9591;52.742;13.650;2023-03-21T07:57:36;101145.47;;;12.15;100.00
18918;BME280;9591;52.742;13.650;2023-03-21T08:00:23;101142.22;;;12.33;100.00
18918;BME280;9591;52.742;13.650;2023-03-21T08:03:12;101144.25;;;12.25;100.00
18918;BME280;9591;52.742;13.650;2023-03-21T08:05:59;101142.03;;;12.13;100.00
18918;BME280;9591;52.742;13.650;2023-03-21T08:08:46;101146.00;;;12.26;100.00
18918;BME280;9591;52.742;13.650;2023-03-21T08:11:32;101144.25;;;12.25;100.00
18918;BME280;9591;52.742;13.650;2023-03-21T08:14:19;101146.66;;;12.33;100.00
18918;BME280;9591;52.742;13.650;2023-03-21T08:17:06;101140.53;;;12.31;100.00
18918;BME280;9591;52.742;13.650;2023-03-21T08:19:55;101143.91;;;12.36;100.00
18918;BME280;9591;52.742;13.650;2023-03-21T08:22:42;101149.28;;;12.34;100.00
18918;BME280;9591;52.742;13.650;2023-03-21T08:25:29;101150.50;;;12.24;100.00
18918;BME280;9591;52.742;13.650;2023-03-21T08:28:16;101150.03;;;12.11;100.00
18918;BME280;9591;52.742;13.650;2023-03-21T08:31:06;101147.88;;;12.23;100.00
18918;BME280;9591;52.742;13.650;2023-03-21T08:33:53;101149.31;;;12.33;100.00
18918;BME280;9591;52.742;13.650;2023-03-21T08:36:41;101154.88;;;12.25;100.00
18918;BME280;9591;52.742;13.650;2023-03-21T08:39:28;101149.03;;;12.42;100.00
18918;BME280;9591;52.742;13.650;2023-03-21T08:42:15;101146.63;;;12.34;100.00
18918;BME280;9591;52.742;13.650;2023-03-21T08:45:02;101152.59;;;12.41;100.00
18918;BME280;9591;52.742;13.650;2023-03-21T08:47:49;101144.69;;;12.39;100.00
18918;BME280;9591;52.742;13.650;2023-03-21T08:50:36;101150.19;;;12.33;100.00
18918;BME280;9591;52.742;13.650;2023-03-21T08:53:25;101148.75;;;12.23;100.00
18918;BME280;9591;52.742;13.650;2023-03-21T08:56:12;101147.47;;;12.35;100.00
18918;BME280;9591;52.742;13.650;2023-03-21T08:59:00;101149.22;;;12.09;100.00
18918;BME280;9591;52.742;13.650;2023-03-21T09:01:47;101149.03;;;12.14;100.00
18918;BME280;9591;52.742;13.650;2023-03-21T09:04:34;101147.22;;;12.42;100.00
18918;BME280;9591;52.742;13.650;2023-03-21T09:07:21;101146.72;;;12.31;100.00
18918;BME280;9591;52.742;13.650;2023-03-21T09:10:14;101152.75;;;12.36;100.00
18918;BME280;9591;52.742;13.650;2023-03-21T09:13:06;101147.59;;;12.32;100.00
18918;BME280;9591;52.742;13.650;2023-03-21T09:15:53;101149.59;;;12.52;100.00
18918;BME280;9591;52.742;13.650;2023-03-21T09:18:42;101154.91;;;12.52;100.00
18918;BME280;9591;52.742;13.650;2023-03-21T09:21:34;101151.97;;;12.59;100.00
18918;BME280;9591;52.742;13.650;2023-03-21T09:24:22;101157.53;;;12.25;100.00
18918;BME280;9591;52.742;13.650;2023-03-21T09:27:12;101154.84;;;12.53;100.00
18918;BME280;9591;52.742;13.650;2023-03-21T09:29:59;101149.06;;;12.67;100.00
18918;BME280;9591;52.742;13.650;2023-03-21T09:32:47;101146.03;;;12.77;100.00
18918;BME280;9591;52.742;13.650;2023-03-21T09:35:34;101150.75;;;12.43;100.00
18918;BME280;9591;52.742;13.650;2023-03-21T09:38:22;101147.06;;;12.47;100.00
18918;BME280;9591;52.742;13.650;2023-03-21T09:41:28;101146.22;;;12.46;100.00
18918;BME280;9591;52.742;13.650;2023-03-21T09:44:33;101150.56;;;12.49;100.00
18918;BME280;9591;52.742;13.650;2023-03-21T09:47:26;101154.28;;;12.70;100.00
18918;BME280;9591;52.742;13.650;2023-03-21T09:50:21;101152.16;;;12.79;100.00
18918;BME280;9591;52.742;13.650;2023-03-21T09:53:16;101152.22;;;12.78;100.00
18918;BME280;9591;52.742;13.650;2023-03-21T09:56:09;101141.69;;;12.75;100.00
18918;BME280;9591;52.742;13.650;2023-03-21T09:58:59;101140.41;;;12.87;100.00
18918;BME280;9591;52.742;13.650;2023-03-21T10:01:48;101143.75;;;12.67;100.00
18918;BME280;9591;52.742;13.650;2023-03-21T10:04:35;101136.88;;;12.86;100.00
18918;BME280;9591;52.742;13.650;2023-03-21T10:07:22;101136.44;;;12.98;100.00
18918;BME280;9591;52.742;13.650;2023-03-21T10:10:14;101138.03;;;13.02;100.00
18918;BME280;9591;52.742;13.650;2023-03-21T10:13:04;101138.22;;;12.98;100.00
18918;BME280;9591;52.742;13.650;2023-03-21T10:15:55;101136.91;;;13.09;100.00
18918;BME280;9591;52.742;13.650;2023-03-21T10:18:44;101126.56;;;13.27;100.00
18918;BME280;9591;52.742;13.650;2023-03-21T10:21:32;101131.69;;;13.31;100.00
18918;BME280;9591;52.742;13.650;2023-03-21T10:24:40;101119.09;;;13.36;100.00
18918;BME280;9591;52.742;13.650;2023-03-21T10:27:28;101120.66;;;13.42;100.00
18918;BME280;9591;52.742;13.650;2023-03-21T10:30:23;101116.66;;;13.54;100.00
18918;BME280;9591;52.742;13.650;2023-03-21T10:33:13;101112.84;;;13.61;100.00
18918;BME280;9591;52.742;13.650;2023-03-21T10:36:05;101109.44;;;13.57;100.00
18918;BME280;9591;52.742;13.650;2023-03-21T10:38:54;101120.53;;;13.45;100.00
18918;BME280;9591;52.742;13.650;2023-03-21T10:41:42;101109.59;;;13.53;100.00
18918;BME280;9591;52.742;13.650;2023-03-21T10:44:30;101110.56;;;13.73;100.00
18918;BME280;9591;52.742;13.650;2023-03-21T10:47:23;101112.38;;;13.73;100.00
18918;BME280;9591;52.742;13.650;2023-03-21T10:50:12;101115.78;;;13.53;100.00
18918;BME280;9591;52.742;13.650;2023-03-21T10:53:14;101110.34;;;13.56;100.00
18918;BME280;9591;52.742;13.650;2023-03-21T10:56:06;101106.88;;;13.54;100.00
18918;BME280;9591;52.742;13.650;2023-03-21T10:58:55;101104.56;;;13.68;100.00
18918;BME280;9591;52.742;13.650;2023-03-21T11:01:47;101095.72;;;13.44;100.00
18918;BME280;9591;52.742;13.650;2023-03-21T11:04:35;101098.47;;;13.87;100.00
18918;BME280;9591;52.742;13.650;2023-03-21T11:07:27;101100.47;;;14.03;100.00
18918;BME280;9591;52.742;13.650;2023-03-21T11:10:27;101094.88;;;13.88;100.00
18918;BME280;9591;52.742;13.650;2023-03-21T11:13:17;101095.69;;;13.90;100.00
18918;BME280;9591;52.742;13.650;2023-03-21T11:16:06;101064.25;;;13.99;100.00
18918;BME280;9591;52.742;13.650;2023-03-21T11:18:58;101094.13;;;14.28;100.00
18918;BME280;9591;52.742;13.650;2023-03-21T11:21:45;101088.31;;;14.18;100.00
18918;BME280;9591;52.742;13.650;2023-03-21T11:24:33;101087.13;;;14.25;100.00
18918;BME280;9591;52.742;13.650;2023-03-21T11:27:22;101094.75;;;14.34;100.00
18918;BME280;9591;52.742;13.650;2023-03-21T11:30:19;101092.72;;;14.19;100.00
18918;BME280;9591;52.742;13.650;2023-03-21T11:33:06;101090.00;;;14.21;100.00
18918;BME280;9591;52.742;13.650;2023-03-21T11:35:58;101077.81;;;14.35;100.00
18918;BME280;9591;52.742;13.650;2023-03-21T11:38:49;101076.22;;;14.31;100.00
18918;BME280;9591;52.742;13.650;2023-03-21T11:41:39;101072.53;;;13.92;100.00
18918;BME280;9591;52.742;13.650;2023-03-21T11:44:30;101075.25;;;14.12;100.00
18918;BME280;9591;52.742;13.650;2023-03-21T11:47:16;101070.16;;;13.86;100.00
18918;BME280;9591;52.742;13.650;2023-03-21T11:50:14;101066.16;;;13.96;100.00
18918;BME280;9591;52.742;13.650;2023-03-21T11:53:13;101063.63;;;13.93;100.00
18918;BME280;9591;52.742;13.650;2023-03-21T11:56:15;101064.13;;;14.02;100.00
18918;BME280;9591;52.742;13.650;2023-03-21T11:59:28;101055.03;;;14.28;100.00
18918;BME280;9591;52.742;13.650;2023-03-21T12:02:38;101054.25;;;14.26;100.00
18918;BME280;9591;52.742;13.650;2023-03-21T12:05:42;101051.44;;;14.29;100.00
18918;BME280;9591;52.742;13.650;2023-03-21T12:08:40;101049.72;;;14.28;100.00
18918;BME280;9591;52.742;13.650;2023-03-21T12:11:36;101048.00;;;14.05;100.00
18918;BME280;9591;52.742;13.650;2023-03-21T12:14:32;101045.47;;;14.02;100.00
18918;BME280;9591;52.742;13.650;2023-03-21T12:17:31;101044.09;;;13.72;100.00
18918;BME280;9591;52.742;13.650;2023-03-21T12:20:28;101049.69;;;14.08;100.00
18918;BME280;9591;52.742;13.650;2023-03-21T12:23:35;101041.81;;;14.05;100.00
18918;BME280;9591;52.742;13.650;2023-03-21T12:26:28;101038.91;;;13.89;100.00
18918;BME280;9591;52.742;13.650;2023-03-21T12:29:44;101044.47;;;14.05;100.00
18918;BME280;9591;52.742;13.650;2023-03-21T12:32:46;101029.25;;;14.29;100.00
18918;BME280;9591;52.742;13.650;2023-03-21T12:35:44;101030.31;;;14.25;100.00
18918;BME280;9591;52.742;13.650;2023-03-21T12:38:40;101028.06;;;14.36;100.00
18918;BME280;9591;52.742;13.650;2023-03-21T12:41:32;100964.84;;;13.99;100.00
18918;BME280;9591;52.742;13.650;2023-03-21T12:44:21;101016.97;;;14.47;100.00
18918;BME280;9591;52.742;13.650;2023-03-21T12:47:14;101015.25;;;14.46;100.00
18918;BME280;9591;52.742;13.650;2023-03-21T12:50:04;101009.72;;;14.50;100.00
18918;BME280;9591;52.742;13.650;2023-03-21T12:52:55;101006.97;;;14.52;100.00
18918;BME280;9591;52.742;13.650;2023-03-21T12:55:43;101006.19;;;14.50;100.00
18918;BME280;9591;52.742;13.650;2023-03-21T12:58:45;100999.13;;;14.49;100.00
18918;BME280;9591;52.742;13.650;2023-03-21T13:01:36;101003.91;;;14.61;100.00
18918;BME280;9591;52.742;13.650;2023-03-21T13:04:42;100997.44;;;14.66;99.95
18918;BME280;9591;52.742;13.650;2023-03-21T13:07:33;101000.41;;;14.79;100.00
18918;BME280;9591;52.742;13.650;2023-03-21T13:10:24;100998.59;;;14.80;100.00
18918;BME280;9591;52.742;13.650;2023-03-21T13:13:17;100989.38;;;14.87;100.00
18918;BME280;9591;52.742;13.650;2023-03-21T13:16:10;100976.31;;;14.81;100.00
18918;BME280;9591;52.742;13.650;2023-03-21T13:19:04;100963.28;;;14.74;100.00
18918;BME280;9591;52.742;13.650;2023-03-21T13:22:02;100975.13;;;14.88;100.00
18918;BME280;9591;52.742;13.650;2023-03-21T13:24:57;100972.44;;;14.88;99.75
18918;BME280;9591;52.742;13.650;2023-03-21T13:27:50;100966.31;;;14.86;100.00
18918;BME280;9591;52.742;13.650;2023-03-21T13:30:37;100966.38;;;14.84;99.20
18918;BME280;9591;52.742;13.650;2023-03-21T13:33:28;100963.78;;;14.64;100.00
18918;BME280;9591;52.742;13.650;2023-03-21T13:36:22;100951.31;;;14.83;100.00
18918;BME280;9591;52.742;13.650;2023-03-21T13:39:17;100957.31;;;14.88;100.00
18918;BME280;9591;52.742;13.650;2023-03-21T13:42:16;100958.19;;;15.07;98.95
18918;BME280;9591;52.742;13.650;2023-03-21T13:45:10;100960.50;;;15.15;98.21
18918;BME280;9591;52.742;13.650;2023-03-21T13:47:58;100949.97;;;14.93;98.56
18918;BME280;9591;52.742;13.650;2023-03-21T13:50:51;100947.09;;;14.98;97.98
18918;BME280;9591;52.742;13.650;2023-03-21T13:53:40;100947.06;;;15.17;97.90
18918;BME280;9591;52.742;13.650;2023-03-21T13:56:47;100940.38;;;15.27;97.48
18918;BME280;9591;52.742;13.650;2023-03-21T13:59:38;100946.28;;;15.33;96.34
18918;BME280;9591;52.742;13.650;2023-03-21T14:02:29;100946.63;;;15.45;95.51
18918;BME280;9591;52.742;13.650;2023-03-21T14:05:20;100933.88;;;15.32;97.18
18918;BME280;9591;52.742;13.650;2023-03-21T14:08:09;100936.47;;;15.34;95.79
18918;BME280;9591;52.742;13.650;2023-03-21T14:11:15;100928.78;;;15.09;97.02
18918;BME280;9591;52.742;13.650;2023-03-21T14:14:04;100934.25;;;15.06;97.41
18918;BME280;9591;52.742;13.650;2023-03-21T14:16:52;100927.84;;;14.91;98.02
18918;BME280;9591;52.742;13.650;2023-03-21T14:19:38;100918.38;;;14.84;99.18
18918;BME280;9591;52.742;13.650;2023-03-21T14:22:26;100924.16;;;14.94;98.76
18918;BME280;9591;52.742;13.650;2023-03-21T14:25:15;100919.19;;;15.05;97.19
18918;BME280;9591;52.742;13.650;2023-03-21T14:28:05;100918.03;;;15.11;97.08
18918;BME280;9591;52.742;13.650;2023-03-21T14:30:56;100918.97;;;14.91;97.97
18918;BME280;9591;52.742;13.650;2023-03-21T14:33:46;100913.13;;;14.83;98.29
18918;BME280;9591;52.742;13.650;2023-03-21T14:36:38;100915.06;;;14.79;100.00
18918;BME280;9591;52.742;13.650;2023-03-21T14:39:31;100909.19;;;14.72;99.79
18918;BME280;9591;52.742;13.650;2023-03-21T14:42:24;100907.59;;;14.87;99.10
18918;BME280;9591;52.742;13.650;2023-03-21T14:45:19;100903.41;;;14.82;98.63
18918;BME280;9591;52.742;13.650;2023-03-21T14:48:12;100900.88;;;14.79;98.87
18918;BME280;9591;52.742;13.650;2023-03-21T14:51:02;100894.22;;;14.70;99.57
18918;BME280;9591;52.742;13.650;2023-03-21T14:53:50;100888.56;;;14.76;100.00
18918;BME280;9591;52.742;13.650;2023-03-21T14:56:38;100883.88;;;14.81;99.79